sensor_id;sensor_type;location;lat;lon;timestamp;P1;durP1;ratioP1;P2;durP2;ratioP2
6527;SDS011;64597;42.664;23.256;2023-09-19T00:01:15;5.35;;;3.95;;
6527;SDS011;64597;42.664;23.256;2023-09-19T00:03:40;4.85;;;3.58;;
6527;SDS011;64597;42.664;23.256;2023-09-19T00:06:06;6.88;;;3.83;;
6527;SDS011;64597;42.664;23.256;2023-09-19T00:08:33;6.15;;;4.00;;
6527;SDS011;64597;42.664;23.256;2023-09-19T00:10:58;7.05;;;4.07;;
6527;SDS011;64597;42.664;23.256;2023-09-19T00:13:31;7.03;;;4.38;;
6527;SDS011;64597;42.664;23.256;2023-09-19T00:15:57;6.53;;;3.80;;
6527;SDS011;64597;42.664;23.256;2023-09-19T00:18:24;6.75;;;4.57;;
6527;SDS011;64597;42.664;23.256;2023-09-19T00:20:56;5.93;;;3.75;;
6527;SDS011;64597;42.664;23.256;2023-09-19T00:23:22;5.72;;;4.10;;
6527;SDS011;64597;42.664;23.256;2023-09-19T00:25:48;6.03;;;4.40;;
6527;SDS011;64597;42.664;23.256;2023-09-19T00:28:13;5.03;;;3.85;;
6527;SDS011;64597;42.664;23.256;2023-09-19T00:30:39;5.93;;;4.40;;
6527;SDS011;64597;42.664;23.256;2023-09-19T00:33:07;5.45;;;4.03;;
6527;SDS011;64597;42.664;23.256;2023-09-19T00:35:33;5.30;;;3.92;;
6527;SDS011;64597;42.664;23.256;2023-09-19T00:37:58;8.23;;;4.20;;
6527;SDS011;64597;42.664;23.256;2023-09-19T00:40:24;5.82;;;4.00;;
6527;SDS011;64597;42.664;23.256;2023-09-19T00:42:50;5.13;;;3.88;;
6527;SDS011;64597;42.664;23.256;2023-09-19T00:45:16;6.72;;;3.70;;
6527;SDS011;64597;42.664;23.256;2023-09-19T00:47:49;7.05;;;4.05;;
6527;SDS011;64597;42.664;23.256;2023-09-19T00:50:16;6.78;;;3.92;;
6527;SDS011;64597;42.664;23.256;2023-09-19T00:52:44;6.80;;;4.03;;
6527;SDS011;64597;42.664;23.256;2023-09-19T00:55:15;7.10;;;4.07;;
6527;SDS011;64597;42.664;23.256;2023-09-19T00:57:44;5.88;;;4.18;;
6527;SDS011;64597;42.664;23.256;2023-09-19T01:00:10;5.55;;;4.00;;
6527;SDS011;64597;42.664;23.256;2023-09-19T01:02:39;5.95;;;4.10;;
6527;SDS011;64597;42.664;23.256;2023-09-19T01:05:07;6.60;;;4.53;;
6527;SDS011;64597;42.664;23.256;2023-09-19T01:07:33;5.28;;;3.72;;
6527;SDS011;64597;42.664;23.256;2023-09-19T01:09:59;6.72;;;4.13;;
6527;SDS011;64597;42.664;23.256;2023-09-19T01:12:33;6.85;;;4.05;;
6527;SDS011;64597;42.664;23.256;2023-09-19T01:15:16;8.13;;;4.50;;
6527;SDS011;64597;42.664;23.256;2023-09-19T01:18:07;7.15;;;4.20;;
6527;SDS011;64597;42.664;23.256;2023-09-19T01:23:39;5.65;;;3.78;;
6527;SDS011;64597;42.664;23.256;2023-09-19T01:29:17;6.15;;;4.10;;
6527;SDS011;64597;42.664;23.256;2023-09-19T01:32:08;5.65;;;4.20;;
6527;SDS011;64597;42.664;23.256;2023-09-19T01:34:51;6.88;;;4.38;;
6527;SDS011;64597;42.664;23.256;2023-09-19T01:37:29;6.53;;;4.38;;
6527;SDS011;64597;42.664;23.256;2023-09-19T01:39:58;6.43;;;3.88;;
6527;SDS011;64597;42.664;23.256;2023-09-19T01:47:53;5.47;;;3.80;;
6527;SDS011;64597;42.664;23.256;2023-09-19T01:50:32;4.90;;;4.05;;
6527;SDS011;64597;42.664;23.256;2023-09-19T01:53:09;5.15;;;3.58;;
6527;SDS011;64597;42.664;23.256;2023-09-19T01:55:46;5.75;;;4.22;;
6527;SDS011;64597;42.664;23.256;2023-09-19T02:01:02;6.70;;;3.83;;
6527;SDS011;64597;42.664;23.256;2023-09-19T02:05:56;8.23;;;4.30;;
6527;SDS011;64597;42.664;23.256;2023-09-19T02:08:22;7.30;;;4.70;;
6527;SDS011;64597;42.664;23.256;2023-09-19T02:10:50;5.60;;;3.45;;
6527;SDS011;64597;42.664;23.256;2023-09-19T02:13:18;8.57;;;4.47;;
6527;SDS011;64597;42.664;23.256;2023-09-19T02:15:44;6.10;;;4.28;;
6527;SDS011;64597;42.664;23.256;2023-09-19T02:18:11;7.40;;;4.40;;
6527;SDS011;64597;42.664;23.256;2023-09-19T02:20:37;6.70;;;4.28;;
6527;SDS011;64597;42.664;23.256;2023-09-19T02:23:02;4.78;;;4.18;;
6527;SDS011;64597;42.664;23.256;2023-09-19T02:25:28;5.93;;;3.55;;
6527;SDS011;64597;42.664;23.256;2023-09-19T02:27:54;5.22;;;4.10;;
6527;SDS011;64597;42.664;23.256;2023-09-19T02:30:23;6.57;;;4.13;;
6527;SDS011;64597;42.664;23.256;2023-09-19T02:32:50;5.45;;;3.90;;
6527;SDS011;64597;42.664;23.256;2023-09-19T02:35:16;5.28;;;4.00;;
6527;SDS011;64597;42.664;23.256;2023-09-19T02:37:41;5.90;;;4.05;;
6527;SDS011;64597;42.664;23.256;2023-09-19T02:40:07;6.45;;;4.60;;
6527;SDS011;64597;42.664;23.256;2023-09-19T02:42:54;7.95;;;4.13;;
6527;SDS011;64597;42.664;23.256;2023-09-19T02:45:21;5.65;;;3.95;;
6527;SDS011;64597;42.664;23.256;2023-09-19T02:47:48;6.30;;;4.20;;
6527;SDS011;64597;42.664;23.256;2023-09-19T02:50:14;5.50;;;4.05;;
6527;SDS011;64597;42.664;23.256;2023-09-19T02:52:44;7.22;;;3.95;;
6527;SDS011;64597;42.664;23.256;2023-09-19T02:55:14;8.13;;;4.18;;
6527;SDS011;64597;42.664;23.256;2023-09-19T02:57:48;8.40;;;4.40;;
6527;SDS011;64597;42.664;23.256;2023-09-19T03:00:15;7.30;;;4.13;;
6527;SDS011;64597;42.664;23.256;2023-09-19T03:02:41;8.40;;;4.28;;
6527;SDS011;64597;42.664;23.256;2023-09-19T03:05:08;5.53;;;3.80;;
6527;SDS011;64597;42.664;23.256;2023-09-19T03:07:36;6.30;;;4.68;;
6527;SDS011;64597;42.664;23.256;2023-09-19T03:10:03;8.82;;;4.20;;
6527;SDS011;64597;42.664;23.256;2023-09-19T03:12:30;8.65;;;4.88;;
6527;SDS011;64597;42.664;23.256;2023-09-19T03:14:57;6.65;;;4.15;;
6527;SDS011;64597;42.664;23.256;2023-09-19T03:17:22;8.05;;;3.80;;
6527;SDS011;64597;42.664;23.256;2023-09-19T03:19:48;6.70;;;4.13;;
6527;SDS011;64597;42.664;23.256;2023-09-19T03:22:14;6.43;;;4.32;;
6527;SDS011;64597;42.664;23.256;2023-09-19T03:24:39;6.10;;;4.30;;
6527;SDS011;64597;42.664;23.256;2023-09-19T03:27:05;6.35;;;4.00;;
6527;SDS011;64597;42.664;23.256;2023-09-19T03:29:31;6.13;;;4.07;;
6527;SDS011;64597;42.664;23.256;2023-09-19T03:31:56;6.47;;;4.28;;
6527;SDS011;64597;42.664;23.256;2023-09-19T03:34:21;7.70;;;4.35;;
6527;SDS011;64597;42.664;23.256;2023-09-19T03:36:47;6.88;;;4.60;;
6527;SDS011;64597;42.664;23.256;2023-09-19T03:39:12;6.70;;;4.18;;
6527;SDS011;64597;42.664;23.256;2023-09-19T03:41:40;8.00;;;5.25;;
6527;SDS011;64597;42.664;23.256;2023-09-19T03:44:06;7.13;;;4.85;;
6527;SDS011;64597;42.664;23.256;2023-09-19T03:46:32;7.20;;;4.13;;
6527;SDS011;64597;42.664;23.256;2023-09-19T03:48:58;7.72;;;4.28;;
6527;SDS011;64597;42.664;23.256;2023-09-19T03:51:23;6.72;;;3.15;;
6527;SDS011;64597;42.664;23.256;2023-09-19T03:53:49;3.67;;;3.25;;
6527;SDS011;64597;42.664;23.256;2023-09-19T03:56:15;8.60;;;3.13;;
6527;SDS011;64597;42.664;23.256;2023-09-19T03:58:40;5.53;;;2.83;;
6527;SDS011;64597;42.664;23.256;2023-09-19T04:01:06;3.97;;;3.15;;
6527;SDS011;64597;42.664;23.256;2023-09-19T04:03:32;8.00;;;3.70;;
6527;SDS011;64597;42.664;23.256;2023-09-19T04:06:14;6.13;;;3.80;;
6527;SDS011;64597;42.664;23.256;2023-09-19T04:08:40;4.78;;;3.47;;
6527;SDS011;64597;42.664;23.256;2023-09-19T04:11:06;5.63;;;3.88;;
6527;SDS011;64597;42.664;23.256;2023-09-19T04:13:32;8.68;;;4.10;;
6527;SDS011;64597;42.664;23.256;2023-09-19T04:15:57;7.70;;;4.10;;
6527;SDS011;64597;42.664;23.256;2023-09-19T04:18:23;7.53;;;4.18;;
6527;SDS011;64597;42.664;23.256;2023-09-19T04:20:49;7.22;;;4.10;;
6527;SDS011;64597;42.664;23.256;2023-09-19T04:23:15;7.15;;;4.50;;
6527;SDS011;64597;42.664;23.256;2023-09-19T04:25:41;8.90;;;4.53;;
6527;SDS011;64597;42.664;23.256;2023-09-19T04:28:07;7.18;;;4.65;;
6527;SDS011;64597;42.664;23.256;2023-09-19T04:30:33;6.32;;;4.38;;
6527;SDS011;64597;42.664;23.256;2023-09-19T04:32:58;5.95;;;4.30;;
6527;SDS011;64597;42.664;23.256;2023-09-19T04:35:27;7.68;;;4.82;;
6527;SDS011;64597;42.664;23.256;2023-09-19T04:37:56;8.73;;;4.30;;
6527;SDS011;64597;42.664;23.256;2023-09-19T04:40:22;8.75;;;4.85;;
6527;SDS011;64597;42.664;23.256;2023-09-19T04:42:56;6.80;;;5.00;;
6527;SDS011;64597;42.664;23.256;2023-09-19T04:45:24;5.43;;;3.92;;
6527;SDS011;64597;42.664;23.256;2023-09-19T04:47:51;7.18;;;4.70;;
6527;SDS011;64597;42.664;23.256;2023-09-19T04:50:17;10.65;;;4.78;;
6527;SDS011;64597;42.664;23.256;2023-09-19T04:52:43;8.88;;;4.80;;
6527;SDS011;64597;42.664;23.256;2023-09-19T04:55:10;6.85;;;4.68;;
6527;SDS011;64597;42.664;23.256;2023-09-19T04:57:45;5.90;;;4.15;;
6527;SDS011;64597;42.664;23.256;2023-09-19T05:00:16;8.13;;;4.47;;
6527;SDS011;64597;42.664;23.256;2023-09-19T05:02:45;6.15;;;4.50;;
6527;SDS011;64597;42.664;23.256;2023-09-19T05:05:11;7.10;;;4.20;;
6527;SDS011;64597;42.664;23.256;2023-09-19T05:07:41;9.23;;;5.13;;
6527;SDS011;64597;42.664;23.256;2023-09-19T05:10:07;6.97;;;5.18;;
6527;SDS011;64597;42.664;23.256;2023-09-19T05:12:34;6.32;;;4.70;;
6527;SDS011;64597;42.664;23.256;2023-09-19T05:15:01;9.35;;;5.45;;
6527;SDS011;64597;42.664;23.256;2023-09-19T05:17:30;9.80;;;6.40;;
6527;SDS011;64597;42.664;23.256;2023-09-19T05:19:57;8.20;;;5.43;;
6527;SDS011;64597;42.664;23.256;2023-09-19T05:22:23;8.13;;;5.15;;
6527;SDS011;64597;42.664;23.256;2023-09-19T05:24:49;8.15;;;5.60;;
6527;SDS011;64597;42.664;23.256;2023-09-19T05:27:16;6.53;;;4.90;;
6527;SDS011;64597;42.664;23.256;2023-09-19T05:29:42;10.15;;;5.18;;
6527;SDS011;64597;42.664;23.256;2023-09-19T05:32:09;9.70;;;4.97;;
6527;SDS011;64597;42.664;23.256;2023-09-19T05:34:35;7.15;;;4.90;;
6527;SDS011;64597;42.664;23.256;2023-09-19T05:37:01;9.98;;;5.07;;
6527;SDS011;64597;42.664;23.256;2023-09-19T05:39:27;9.27;;;5.75;;
6527;SDS011;64597;42.664;23.256;2023-09-19T05:41:53;6.70;;;4.97;;
6527;SDS011;64597;42.664;23.256;2023-09-19T05:44:18;8.98;;;5.30;;
6527;SDS011;64597;42.664;23.256;2023-09-19T05:46:44;8.88;;;5.10;;
6527;SDS011;64597;42.664;23.256;2023-09-19T05:49:11;7.53;;;5.20;;
6527;SDS011;64597;42.664;23.256;2023-09-19T05:51:36;8.77;;;5.60;;
6527;SDS011;64597;42.664;23.256;2023-09-19T05:54:01;7.97;;;5.53;;
6527;SDS011;64597;42.664;23.256;2023-09-19T05:56:27;10.20;;;6.00;;
6527;SDS011;64597;42.664;23.256;2023-09-19T05:58:52;10.20;;;6.53;;
6527;SDS011;64597;42.664;23.256;2023-09-19T06:01:18;7.60;;;4.20;;
6527;SDS011;64597;42.664;23.256;2023-09-19T06:03:44;4.97;;;4.00;;
6527;SDS011;64597;42.664;23.256;2023-09-19T06:06:09;5.03;;;3.63;;
6527;SDS011;64597;42.664;23.256;2023-09-19T06:08:35;5.80;;;3.47;;
6527;SDS011;64597;42.664;23.256;2023-09-19T06:11:00;7.30;;;4.07;;
6527;SDS011;64597;42.664;23.256;2023-09-19T06:13:29;5.57;;;4.38;;
6527;SDS011;64597;42.664;23.256;2023-09-19T06:15:55;7.68;;;4.22;;
6527;SDS011;64597;42.664;23.256;2023-09-19T06:18:25;8.63;;;4.57;;
6527;SDS011;64597;42.664;23.256;2023-09-19T06:20:51;8.57;;;4.30;;
6527;SDS011;64597;42.664;23.256;2023-09-19T06:23:17;5.53;;;4.10;;
6527;SDS011;64597;42.664;23.256;2023-09-19T06:28:10;7.82;;;4.25;;
6527;SDS011;64597;42.664;23.256;2023-09-19T06:30:37;9.38;;;4.28;;
6527;SDS011;64597;42.664;23.256;2023-09-19T06:33:05;7.57;;;4.20;;
6527;SDS011;64597;42.664;23.256;2023-09-19T06:35:31;8.82;;;4.55;;
6527;SDS011;64597;42.664;23.256;2023-09-19T06:37:58;6.43;;;4.13;;
6527;SDS011;64597;42.664;23.256;2023-09-19T06:40:23;6.85;;;4.75;;
6527;SDS011;64597;42.664;23.256;2023-09-19T06:42:52;7.35;;;4.63;;
6527;SDS011;64597;42.664;23.256;2023-09-19T06:45:19;9.07;;;4.50;;
6527;SDS011;64597;42.664;23.256;2023-09-19T06:47:46;5.80;;;4.18;;
6527;SDS011;64597;42.664;23.256;2023-09-19T06:50:21;6.55;;;4.43;;
6527;SDS011;64597;42.664;23.256;2023-09-19T06:52:51;7.55;;;4.03;;
6527;SDS011;64597;42.664;23.256;2023-09-19T06:55:18;8.93;;;4.03;;
6527;SDS011;64597;42.664;23.256;2023-09-19T06:57:48;5.50;;;3.95;;
6527;SDS011;64597;42.664;23.256;2023-09-19T07:00:14;8.18;;;4.00;;
6527;SDS011;64597;42.664;23.256;2023-09-19T07:02:57;7.45;;;4.00;;
6527;SDS011;64597;42.664;23.256;2023-09-19T07:05:28;7.22;;;4.15;;
6527;SDS011;64597;42.664;23.256;2023-09-19T07:07:54;6.70;;;4.57;;
6527;SDS011;64597;42.664;23.256;2023-09-19T07:10:21;7.32;;;4.53;;
6527;SDS011;64597;42.664;23.256;2023-09-19T07:12:54;6.95;;;3.83;;
6527;SDS011;64597;42.664;23.256;2023-09-19T07:15:26;6.55;;;4.18;;
6527;SDS011;64597;42.664;23.256;2023-09-19T07:17:53;6.03;;;4.47;;
6527;SDS011;64597;42.664;23.256;2023-09-19T07:20:20;10.98;;;5.47;;
6527;SDS011;64597;42.664;23.256;2023-09-19T07:22:45;8.80;;;5.28;;
6527;SDS011;64597;42.664;23.256;2023-09-19T07:25:12;7.25;;;4.22;;
6527;SDS011;64597;42.664;23.256;2023-09-19T07:27:40;5.90;;;4.22;;
6527;SDS011;64597;42.664;23.256;2023-09-19T07:30:06;7.78;;;4.63;;
6527;SDS011;64597;42.664;23.256;2023-09-19T07:32:33;7.45;;;4.70;;
6527;SDS011;64597;42.664;23.256;2023-09-19T07:35:01;8.00;;;4.85;;
6527;SDS011;64597;42.664;23.256;2023-09-19T07:37:28;7.90;;;4.75;;
6527;SDS011;64597;42.664;23.256;2023-09-19T07:39:56;6.50;;;4.93;;
6527;SDS011;64597;42.664;23.256;2023-09-19T07:42:21;9.50;;;5.00;;
6527;SDS011;64597;42.664;23.256;2023-09-19T07:44:47;7.85;;;4.63;;
6527;SDS011;64597;42.664;23.256;2023-09-19T07:47:15;10.38;;;5.38;;
6527;SDS011;64597;42.664;23.256;2023-09-19T07:49:41;7.63;;;5.05;;
6527;SDS011;64597;42.664;23.256;2023-09-19T07:52:10;9.30;;;4.28;;
6527;SDS011;64597;42.664;23.256;2023-09-19T07:54:35;7.60;;;5.05;;
6527;SDS011;64597;42.664;23.256;2023-09-19T07:57:02;8.00;;;4.82;;
6527;SDS011;64597;42.664;23.256;2023-09-19T07:59:27;7.75;;;4.88;;
6527;SDS011;64597;42.664;23.256;2023-09-19T08:01:53;8.32;;;4.95;;
6527;SDS011;64597;42.664;23.256;2023-09-19T08:04:19;7.70;;;4.45;;
6527;SDS011;64597;42.664;23.256;2023-09-19T08:06:45;8.05;;;5.03;;
6527;SDS011;64597;42.664;23.256;2023-09-19T08:09:11;9.35;;;4.88;;
6527;SDS011;64597;42.664;23.256;2023-09-19T08:11:37;7.78;;;4.63;;
6527;SDS011;64597;42.664;23.256;2023-09-19T08:14:04;6.60;;;4.57;;
6527;SDS011;64597;42.664;23.256;2023-09-19T08:16:31;11.55;;;5.15;;
6527;SDS011;64597;42.664;23.256;2023-09-19T08:18:56;10.15;;;4.90;;
6527;SDS011;64597;42.664;23.256;2023-09-19T08:21:22;9.27;;;5.57;;
6527;SDS011;64597;42.664;23.256;2023-09-19T08:23:49;9.10;;;4.90;;
6527;SDS011;64597;42.664;23.256;2023-09-19T08:26:15;10.13;;;5.60;;
6527;SDS011;64597;42.664;23.256;2023-09-19T08:28:40;10.38;;;5.07;;
6527;SDS011;64597;42.664;23.256;2023-09-19T08:31:06;7.97;;;4.50;;
6527;SDS011;64597;42.664;23.256;2023-09-19T08:33:36;8.70;;;5.25;;
6527;SDS011;64597;42.664;23.256;2023-09-19T08:36:02;8.00;;;4.78;;
6527;SDS011;64597;42.664;23.256;2023-09-19T08:38:30;8.77;;;5.38;;
6527;SDS011;64597;42.664;23.256;2023-09-19T08:40:58;6.07;;;4.35;;
6527;SDS011;64597;42.664;23.256;2023-09-19T08:43:29;7.72;;;4.50;;
6527;SDS011;64597;42.664;23.256;2023-09-19T08:46:02;8.23;;;5.18;;
6527;SDS011;64597;42.664;23.256;2023-09-19T08:48:34;8.23;;;4.50;;
6527;SDS011;64597;42.664;23.256;2023-09-19T08:53:42;9.85;;;5.20;;
6527;SDS011;64597;42.664;23.256;2023-09-19T08:56:11;7.53;;;4.60;;
6527;SDS011;64597;42.664;23.256;2023-09-19T08:58:41;10.15;;;4.90;;
6527;SDS011;64597;42.664;23.256;2023-09-19T09:01:12;8.10;;;4.53;;
6527;SDS011;64597;42.664;23.256;2023-09-19T09:03:40;8.55;;;4.97;;
6527;SDS011;64597;42.664;23.256;2023-09-19T09:06:11;6.55;;;4.85;;
6527;SDS011;64597;42.664;23.256;2023-09-19T09:08:40;10.13;;;4.63;;
6527;SDS011;64597;42.664;23.256;2023-09-19T09:11:06;12.70;;;4.68;;
6527;SDS011;64597;42.664;23.256;2023-09-19T09:13:33;8.88;;;5.03;;
6527;SDS011;64597;42.664;23.256;2023-09-19T09:16:01;8.02;;;4.57;;
6527;SDS011;64597;42.664;23.256;2023-09-19T09:18:27;6.75;;;4.45;;
6527;SDS011;64597;42.664;23.256;2023-09-19T09:20:55;7.22;;;4.38;;
6527;SDS011;64597;42.664;23.256;2023-09-19T09:23:21;6.47;;;4.55;;
6527;SDS011;64597;42.664;23.256;2023-09-19T09:25:47;9.23;;;4.70;;
6527;SDS011;64597;42.664;23.256;2023-09-19T09:28:20;10.07;;;4.63;;
6527;SDS011;64597;42.664;23.256;2023-09-19T09:30:46;6.63;;;5.05;;
6527;SDS011;64597;42.664;23.256;2023-09-19T09:33:12;7.05;;;4.60;;
6527;SDS011;64597;42.664;23.256;2023-09-19T09:38:24;7.72;;;4.13;;
6527;SDS011;64597;42.664;23.256;2023-09-19T09:40:52;7.43;;;4.97;;
6527;SDS011;64597;42.664;23.256;2023-09-19T09:43:27;7.47;;;4.20;;
6527;SDS011;64597;42.664;23.256;2023-09-19T09:46:26;6.55;;;4.38;;
6527;SDS011;64597;42.664;23.256;2023-09-19T09:51:39;8.90;;;4.38;;
6527;SDS011;64597;42.664;23.256;2023-09-19T09:54:23;8.18;;;4.40;;
6527;SDS011;64597;42.664;23.256;2023-09-19T09:56:53;6.28;;;4.38;;
6527;SDS011;64597;42.664;23.256;2023-09-19T09:59:27;6.93;;;4.45;;
6527;SDS011;64597;42.664;23.256;2023-09-19T10:02:20;6.50;;;4.35;;
6527;SDS011;64597;42.664;23.256;2023-09-19T10:04:51;6.70;;;4.57;;
6527;SDS011;64597;42.664;23.256;2023-09-19T10:07:26;8.18;;;4.78;;
6527;SDS011;64597;42.664;23.256;2023-09-19T10:10:14;9.05;;;4.68;;
6527;SDS011;64597;42.664;23.256;2023-09-19T10:12:46;8.05;;;4.60;;
6527;SDS011;64597;42.664;23.256;2023-09-19T10:15:13;8.43;;;4.40;;
6527;SDS011;64597;42.664;23.256;2023-09-19T10:17:42;6.50;;;4.22;;
6527;SDS011;64597;42.664;23.256;2023-09-19T10:22:47;6.15;;;4.07;;
6527;SDS011;64597;42.664;23.256;2023-09-19T10:25:29;8.40;;;3.53;;
6527;SDS011;64597;42.664;23.256;2023-09-19T10:27:56;6.28;;;4.18;;
6527;SDS011;64597;42.664;23.256;2023-09-19T10:30:26;6.85;;;4.50;;
6527;SDS011;64597;42.664;23.256;2023-09-19T10:32:57;4.30;;;2.63;;
6527;SDS011;64597;42.664;23.256;2023-09-19T10:35:26;7.57;;;4.45;;
6527;SDS011;64597;42.664;23.256;2023-09-19T10:37:52;6.70;;;5.13;;
6527;SDS011;64597;42.664;23.256;2023-09-19T10:40:20;7.30;;;4.30;;
6527;SDS011;64597;42.664;23.256;2023-09-19T10:42:48;9.10;;;4.38;;
6527;SDS011;64597;42.664;23.256;2023-09-19T10:45:15;6.65;;;4.93;;
6527;SDS011;64597;42.664;23.256;2023-09-19T10:47:42;8.50;;;4.50;;
6527;SDS011;64597;42.664;23.256;2023-09-19T10:50:08;10.55;;;4.38;;
6527;SDS011;64597;42.664;23.256;2023-09-19T10:52:37;6.78;;;4.95;;
6527;SDS011;64597;42.664;23.256;2023-09-19T10:55:07;6.50;;;4.47;;
6527;SDS011;64597;42.664;23.256;2023-09-19T10:57:36;7.80;;;4.70;;
6527;SDS011;64597;42.664;23.256;2023-09-19T11:00:03;7.28;;;4.47;;
6527;SDS011;64597;42.664;23.256;2023-09-19T11:05:40;8.02;;;4.78;;
6527;SDS011;64597;42.664;23.256;2023-09-19T11:08:09;8.90;;;4.72;;
6527;SDS011;64597;42.664;23.256;2023-09-19T11:13:25;10.40;;;4.63;;
6527;SDS011;64597;42.664;23.256;2023-09-19T11:24:56;6.55;;;4.35;;
6527;SDS011;64597;42.664;23.256;2023-09-19T11:27:14;7.57;;;4.25;;
6527;SDS011;64597;42.664;23.256;2023-09-19T11:29:42;9.23;;;4.40;;
6527;SDS011;64597;42.664;23.256;2023-09-19T11:32:08;8.07;;;4.13;;
6527;SDS011;64597;42.664;23.256;2023-09-19T11:34:41;5.50;;;4.10;;
6527;SDS011;64597;42.664;23.256;2023-09-19T11:39:39;7.75;;;4.70;;
6527;SDS011;64597;42.664;23.256;2023-09-19T11:48:15;8.30;;;3.83;;
6527;SDS011;64597;42.664;23.256;2023-09-19T11:50:44;8.15;;;3.80;;
6527;SDS011;64597;42.664;23.256;2023-09-19T11:53:12;6.82;;;4.25;;
6527;SDS011;64597;42.664;23.256;2023-09-19T11:55:39;5.97;;;4.78;;
6527;SDS011;64597;42.664;23.256;2023-09-19T11:58:06;7.75;;;4.80;;
6527;SDS011;64597;42.664;23.256;2023-09-19T12:00:33;8.45;;;3.90;;
6527;SDS011;64597;42.664;23.256;2023-09-19T12:03:02;5.50;;;4.38;;
6527;SDS011;64597;42.664;23.256;2023-09-19T12:05:37;6.30;;;4.22;;
6527;SDS011;64597;42.664;23.256;2023-09-19T12:08:09;10.80;;;4.20;;
6527;SDS011;64597;42.664;23.256;2023-09-19T12:10:45;6.78;;;4.15;;
6527;SDS011;64597;42.664;23.256;2023-09-19T12:13:15;6.32;;;4.50;;
6527;SDS011;64597;42.664;23.256;2023-09-19T12:15:42;8.40;;;4.07;;
6527;SDS011;64597;42.664;23.256;2023-09-19T12:18:10;8.65;;;4.10;;
6527;SDS011;64597;42.664;23.256;2023-09-19T12:20:50;5.95;;;3.85;;
6527;SDS011;64597;42.664;23.256;2023-09-19T12:23:17;4.90;;;3.85;;
6527;SDS011;64597;42.664;23.256;2023-09-19T12:25:44;7.88;;;4.43;;
6527;SDS011;64597;42.664;23.256;2023-09-19T12:28:12;4.90;;;4.10;;
6527;SDS011;64597;42.664;23.256;2023-09-19T12:30:40;10.00;;;4.63;;
6527;SDS011;64597;42.664;23.256;2023-09-19T12:35:44;5.82;;;3.83;;
6527;SDS011;64597;42.664;23.256;2023-09-19T12:38:10;5.10;;;4.32;;
6527;SDS011;64597;42.664;23.256;2023-09-19T12:40:37;4.88;;;3.92;;
6527;SDS011;64597;42.664;23.256;2023-09-19T12:43:07;9.68;;;4.82;;
6527;SDS011;64597;42.664;23.256;2023-09-19T12:45:34;7.72;;;3.83;;
6527;SDS011;64597;42.664;23.256;2023-09-19T12:48:18;5.43;;;3.72;;
6527;SDS011;64597;42.664;23.256;2023-09-19T12:51:06;9.55;;;4.40;;
6527;SDS011;64597;42.664;23.256;2023-09-19T12:53:38;7.72;;;3.95;;
6527;SDS011;64597;42.664;23.256;2023-09-19T12:56:08;7.65;;;4.60;;
6527;SDS011;64597;42.664;23.256;2023-09-19T12:58:47;5.82;;;4.30;;
6527;SDS011;64597;42.664;23.256;2023-09-19T13:01:31;6.05;;;4.10;;
6527;SDS011;64597;42.664;23.256;2023-09-19T13:06:49;6.38;;;4.43;;
6527;SDS011;64597;42.664;23.256;2023-09-19T13:09:16;5.10;;;3.83;;
6527;SDS011;64597;42.664;23.256;2023-09-19T13:11:42;7.35;;;3.40;;
6527;SDS011;64597;42.664;23.256;2023-09-19T13:17:06;6.18;;;3.78;;
6527;SDS011;64597;42.664;23.256;2023-09-19T13:19:47;7.78;;;3.63;;
6527;SDS011;64597;42.664;23.256;2023-09-19T13:25:14;5.65;;;3.63;;
6527;SDS011;64597;42.664;23.256;2023-09-19T13:27:43;6.20;;;3.90;;
6527;SDS011;64597;42.664;23.256;2023-09-19T13:30:10;7.97;;;4.90;;
6527;SDS011;64597;42.664;23.256;2023-09-19T13:32:39;4.82;;;3.42;;
6527;SDS011;64597;42.664;23.256;2023-09-19T13:35:06;7.30;;;4.35;;
6527;SDS011;64597;42.664;23.256;2023-09-19T13:37:34;5.00;;;3.50;;
6527;SDS011;64597;42.664;23.256;2023-09-19T13:40:04;6.45;;;3.55;;
6527;SDS011;64597;42.664;23.256;2023-09-19T13:42:30;6.13;;;3.75;;
6527;SDS011;64597;42.664;23.256;2023-09-19T13:44:56;6.38;;;4.15;;
6527;SDS011;64597;42.664;23.256;2023-09-19T13:47:22;6.90;;;3.65;;
6527;SDS011;64597;42.664;23.256;2023-09-19T13:49:51;5.07;;;4.28;;
6527;SDS011;64597;42.664;23.256;2023-09-19T13:52:18;7.03;;;3.95;;
6527;SDS011;64597;42.664;23.256;2023-09-19T13:54:44;5.05;;;3.50;;
6527;SDS011;64597;42.664;23.256;2023-09-19T13:57:10;7.20;;;3.40;;
6527;SDS011;64597;42.664;23.256;2023-09-19T13:59:35;6.40;;;4.07;;
6527;SDS011;64597;42.664;23.256;2023-09-19T14:02:01;5.65;;;3.80;;
6527;SDS011;64597;42.664;23.256;2023-09-19T14:04:30;7.47;;;3.70;;
6527;SDS011;64597;42.664;23.256;2023-09-19T14:06:56;7.45;;;3.80;;
6527;SDS011;64597;42.664;23.256;2023-09-19T14:09:23;4.22;;;3.35;;
6527;SDS011;64597;42.664;23.256;2023-09-19T14:11:49;4.15;;;3.65;;
6527;SDS011;64597;42.664;23.256;2023-09-19T14:14:20;5.65;;;3.30;;
6527;SDS011;64597;42.664;23.256;2023-09-19T14:16:47;6.95;;;4.32;;
6527;SDS011;64597;42.664;23.256;2023-09-19T14:19:12;8.90;;;5.32;;
6527;SDS011;64597;42.664;23.256;2023-09-19T14:21:40;4.80;;;3.65;;
6527;SDS011;64597;42.664;23.256;2023-09-19T14:24:05;9.77;;;4.00;;
6527;SDS011;64597;42.664;23.256;2023-09-19T14:26:34;5.93;;;4.32;;
6527;SDS011;64597;42.664;23.256;2023-09-19T14:29:00;5.65;;;4.47;;
6527;SDS011;64597;42.664;23.256;2023-09-19T14:31:26;5.65;;;3.50;;
6527;SDS011;64597;42.664;23.256;2023-09-19T14:33:53;5.47;;;3.97;;
6527;SDS011;64597;42.664;23.256;2023-09-19T14:36:21;6.53;;;3.88;;
6527;SDS011;64597;42.664;23.256;2023-09-19T14:38:47;6.32;;;3.85;;
6527;SDS011;64597;42.664;23.256;2023-09-19T14:41:13;8.35;;;3.92;;
6527;SDS011;64597;42.664;23.256;2023-09-19T14:43:38;6.32;;;3.47;;
6527;SDS011;64597;42.664;23.256;2023-09-19T14:46:05;8.05;;;3.97;;
6527;SDS011;64597;42.664;23.256;2023-09-19T14:48:35;5.93;;;3.55;;
6527;SDS011;64597;42.664;23.256;2023-09-19T14:51:04;8.07;;;3.83;;
6527;SDS011;64597;42.664;23.256;2023-09-19T14:53:31;5.32;;;3.90;;
6527;SDS011;64597;42.664;23.256;2023-09-19T14:55:59;6.00;;;4.43;;
6527;SDS011;64597;42.664;23.256;2023-09-19T14:58:25;8.52;;;5.40;;
6527;SDS011;64597;42.664;23.256;2023-09-19T15:01:00;6.43;;;5.25;;
6527;SDS011;64597;42.664;23.256;2023-09-19T15:03:29;8.75;;;5.45;;
6527;SDS011;64597;42.664;23.256;2023-09-19T15:06:02;7.75;;;5.50;;
6527;SDS011;64597;42.664;23.256;2023-09-19T15:08:34;7.70;;;5.05;;
6527;SDS011;64597;42.664;23.256;2023-09-19T15:11:03;11.40;;;4.68;;
6527;SDS011;64597;42.664;23.256;2023-09-19T15:13:30;7.53;;;4.30;;
6527;SDS011;64597;42.664;23.256;2023-09-19T15:15:59;6.68;;;4.22;;
6527;SDS011;64597;42.664;23.256;2023-09-19T15:18:29;8.55;;;3.67;;
6527;SDS011;64597;42.664;23.256;2023-09-19T15:20:55;6.93;;;3.63;;
6527;SDS011;64597;42.664;23.256;2023-09-19T15:23:25;6.03;;;3.95;;
6527;SDS011;64597;42.664;23.256;2023-09-19T15:25:51;6.90;;;4.35;;
6527;SDS011;64597;42.664;23.256;2023-09-19T15:28:16;5.18;;;3.95;;
6527;SDS011;64597;42.664;23.256;2023-09-19T15:30:43;6.05;;;3.80;;
6527;SDS011;64597;42.664;23.256;2023-09-19T15:33:08;5.72;;;4.10;;
6527;SDS011;64597;42.664;23.256;2023-09-19T15:35:34;4.43;;;3.63;;
6527;SDS011;64597;42.664;23.256;2023-09-19T15:38:01;5.97;;;3.47;;
6527;SDS011;64597;42.664;23.256;2023-09-19T15:40:26;5.63;;;3.88;;
6527;SDS011;64597;42.664;23.256;2023-09-19T15:42:56;7.03;;;3.70;;
6527;SDS011;64597;42.664;23.256;2023-09-19T15:45:21;4.78;;;3.97;;
6527;SDS011;64597;42.664;23.256;2023-09-19T15:47:48;6.47;;;4.18;;
6527;SDS011;64597;42.664;23.256;2023-09-19T15:50:13;5.97;;;3.58;;
6527;SDS011;64597;42.664;23.256;2023-09-19T15:52:40;9.52;;;4.20;;
6527;SDS011;64597;42.664;23.256;2023-09-19T15:55:06;5.80;;;4.20;;
6527;SDS011;64597;42.664;23.256;2023-09-19T15:57:32;8.57;;;4.25;;
6527;SDS011;64597;42.664;23.256;2023-09-19T15:59:59;8.00;;;4.13;;